sensor_id;sensor_type;location;lat;lon;timestamp;P1;durP1;ratioP1;P2;durP2;ratioP2
15331;SDS011;7766;51.534;6.722;2022-12-18T15:19:22;18.27;;;10.65;;
15331;SDS011;7766;51.534;6.722;2022-12-18T15:20:39;17.15;;;10.05;;
15331;SDS011;7766;51.534;6.722;2022-12-18T15:21:48;17.35;;;9.27;;
15331;SDS011;7766;51.534;6.722;2022-12-18T15:22:49;18.40;;;10.32;;
15331;SDS011;7766;51.534;6.722;2022-12-18T15:23:50;17.70;;;10.27;;
15331;SDS011;7766;51.534;6.722;2022-12-18T15:24:52;18.73;;;10.63;;
15331;SDS011;7766;51.534;6.722;2022-12-18T15:26:17;18.48;;;9.95;;
15331;SDS011;7766;51.534;6.722;2022-12-18T15:27:21;17.02;;;10.05;;
15331;SDS011;7766;51.534;6.722;2022-12-18T15:28:35;16.60;;;9.52;;
15331;SDS011;7766;51.534;6.722;2022-12-18T15:29:39;16.10;;;9.82;;
15331;SDS011;7766;51.534;6.722;2022-12-18T15:30:40;20.92;;;10.68;;
15331;SDS011;7766;51.534;6.722;2022-12-18T15:32:02;15.35;;;9.98;;
15331;SDS011;7766;51.534;6.722;2022-12-18T15:33:25;18.92;;;9.32;;
15331;SDS011;7766;51.534;6.722;2022-12-18T15:34:29;15.45;;;9.02;;
15331;SDS011;7766;51.534;6.722;2022-12-18T15:35:32;14.10;;;9.38;;
15331;SDS011;7766;51.534;6.722;2022-12-18T15:36:33;16.33;;;8.90;;
15331;SDS011;7766;51.534;6.722;2022-12-18T15:37:37;16.92;;;10.80;;
15331;SDS011;7766;51.534;6.722;2022-12-18T15:38:38;17.67;;;10.60;;
15331;SDS011;7766;51.534;6.722;2022-12-18T15:39:40;15.48;;;9.57;;
15331;SDS011;7766;51.534;6.722;2022-12-18T15:40:41;16.27;;;9.20;;
15331;SDS011;7766;51.534;6.722;2022-12-18T15:41:42;20.67;;;9.80;;
15331;SDS011;7766;51.534;6.722;2022-12-18T15:43:04;16.48;;;10.10;;
15331;SDS011;7766;51.534;6.722;2022-12-18T15:44:26;16.52;;;10.10;;
15331;SDS011;7766;51.534;6.722;2022-12-18T15:45:28;16.23;;;10.45;;
15331;SDS011;7766;51.534;6.722;2022-12-18T15:46:29;15.88;;;10.38;;
15331;SDS011;7766;51.534;6.722;2022-12-18T15:47:30;18.25;;;9.85;;
15331;SDS011;7766;51.534;6.722;2022-12-18T15:48:33;17.42;;;10.32;;
15331;SDS011;7766;51.534;6.722;2022-12-18T15:49:37;17.52;;;10.00;;
15331;SDS011;7766;51.534;6.722;2022-12-18T15:50:39;14.10;;;9.27;;
15331;SDS011;7766;51.534;6.722;2022-12-18T15:51:40;21.20;;;11.63;;
15331;SDS011;7766;51.534;6.722;2022-12-18T15:52:45;18.00;;;10.60;;
15331;SDS011;7766;51.534;6.722;2022-12-18T15:53:47;18.55;;;10.52;;
15331;SDS011;7766;51.534;6.722;2022-12-18T15:54:51;21.63;;;10.48;;
15331;SDS011;7766;51.534;6.722;2022-12-18T15:56:11;18.27;;;10.63;;
15331;SDS011;7766;51.534;6.722;2022-12-18T15:57:32;20.92;;;11.25;;
15331;SDS011;7766;51.534;6.722;2022-12-18T15:58:33;21.27;;;10.93;;
15331;SDS011;7766;51.534;6.722;2022-12-18T15:59:34;23.23;;;13.18;;
15331;SDS011;7766;51.534;6.722;2022-12-18T16:00:36;23.98;;;11.45;;
15331;SDS011;7766;51.534;6.722;2022-12-18T16:01:39;22.85;;;11.82;;
15331;SDS011;7766;51.534;6.722;2022-12-18T16:02:41;19.73;;;12.07;;
15331;SDS011;7766;51.534;6.722;2022-12-18T16:03:42;19.58;;;10.70;;
15331;SDS011;7766;51.534;6.722;2022-12-18T16:04:43;23.92;;;13.02;;
15331;SDS011;7766;51.534;6.722;2022-12-18T16:05:45;24.17;;;11.93;;
15331;SDS011;7766;51.534;6.722;2022-12-18T16:06:46;22.67;;;12.38;;
15331;SDS011;7766;51.534;6.722;2022-12-18T16:07:48;24.40;;;11.63;;
15331;SDS011;7766;51.534;6.722;2022-12-18T16:08:49;24.65;;;12.05;;
15331;SDS011;7766;51.534;6.722;2022-12-18T16:09:50;22.80;;;12.27;;
15331;SDS011;7766;51.534;6.722;2022-12-18T16:10:51;27.98;;;13.13;;
15331;SDS011;7766;51.534;6.722;2022-12-18T16:11:52;25.27;;;12.35;;
15331;SDS011;7766;51.534;6.722;2022-12-18T16:12:53;25.55;;;12.55;;
15331;SDS011;7766;51.534;6.722;2022-12-18T16:13:54;24.30;;;12.38;;
15331;SDS011;7766;51.534;6.722;2022-12-18T16:14:55;20.05;;;12.02;;
15331;SDS011;7766;51.534;6.722;2022-12-18T16:15:56;28.10;;;12.40;;
15331;SDS011;7766;51.534;6.722;2022-12-18T16:16:59;26.00;;;12.95;;
15331;SDS011;7766;51.534;6.722;2022-12-18T16:18:01;25.02;;;12.30;;
15331;SDS011;7766;51.534;6.722;2022-12-18T16:19:02;24.05;;;13.50;;
15331;SDS011;7766;51.534;6.722;2022-12-18T16:20:03;25.98;;;13.85;;
15331;SDS011;7766;51.534;6.722;2022-12-18T16:21:04;22.98;;;12.73;;
15331;SDS011;7766;51.534;6.722;2022-12-18T16:22:05;25.35;;;13.73;;
15331;SDS011;7766;51.534;6.722;2022-12-18T16:23:20;21.48;;;12.02;;
15331;SDS011;7766;51.534;6.722;2022-12-18T16:24:22;27.35;;;13.88;;
15331;SDS011;7766;51.534;6.722;2022-12-18T16:25:28;22.25;;;12.35;;
15331;SDS011;7766;51.534;6.722;2022-12-18T16:26:29;23.27;;;9.88;;
15331;SDS011;7766;51.534;6.722;2022-12-18T16:27:30;23.15;;;12.10;;
15331;SDS011;7766;51.534;6.722;2022-12-18T16:28:31;19.83;;;11.73;;
15331;SDS011;7766;51.534;6.722;2022-12-18T16:29:32;23.50;;;12.73;;
15331;SDS011;7766;51.534;6.722;2022-12-18T16:30:33;21.10;;;12.82;;
15331;SDS011;7766;51.534;6.722;2022-12-18T16:31:34;21.67;;;12.57;;
15331;SDS011;7766;51.534;6.722;2022-12-18T16:32:36;21.15;;;11.95;;
15331;SDS011;7766;51.534;6.722;2022-12-18T16:33:37;24.90;;;12.77;;
15331;SDS011;7766;51.534;6.722;2022-12-18T16:34:38;23.70;;;12.65;;
15331;SDS011;7766;51.534;6.722;2022-12-18T16:35:39;18.92;;;12.07;;
15331;SDS011;7766;51.534;6.722;2022-12-18T16:36:40;19.50;;;11.50;;
15331;SDS011;7766;51.534;6.722;2022-12-18T16:37:41;23.02;;;12.75;;
15331;SDS011;7766;51.534;6.722;2022-12-18T16:38:43;20.20;;;12.35;;
15331;SDS011;7766;51.534;6.722;2022-12-18T16:39:44;21.95;;;12.82;;
15331;SDS011;7766;51.534;6.722;2022-12-18T16:40:45;19.73;;;10.70;;
15331;SDS011;7766;51.534;6.722;2022-12-18T16:42:12;20.23;;;12.60;;
15331;SDS011;7766;51.534;6.722;2022-12-18T16:43:16;23.10;;;13.07;;
15331;SDS011;7766;51.534;6.722;2022-12-18T16:44:17;21.95;;;12.40;;
15331;SDS011;7766;51.534;6.722;2022-12-18T16:45:18;20.92;;;12.25;;
15331;SDS011;7766;51.534;6.722;2022-12-18T16:46:19;22.42;;;12.90;;
15331;SDS011;7766;51.534;6.722;2022-12-18T16:47:20;21.63;;;11.40;;
15331;SDS011;7766;51.534;6.722;2022-12-18T16:48:21;24.77;;;12.45;;
15331;SDS011;7766;51.534;6.722;2022-12-18T16:49:22;25.67;;;13.88;;
15331;SDS011;7766;51.534;6.722;2022-12-18T16:50:23;21.02;;;12.57;;
15331;SDS011;7766;51.534;6.722;2022-12-18T16:51:25;25.08;;;14.00;;
15331;SDS011;7766;51.534;6.722;2022-12-18T16:52:27;24.45;;;13.13;;
15331;SDS011;7766;51.534;6.722;2022-12-18T16:53:27;24.90;;;13.23;;
15331;SDS011;7766;51.534;6.722;2022-12-18T16:54:29;24.75;;;12.95;;
15331;SDS011;7766;51.534;6.722;2022-12-18T16:55:30;19.63;;;11.63;;
15331;SDS011;7766;51.534;6.722;2022-12-18T16:56:31;17.65;;;10.95;;
15331;SDS011;7766;51.534;6.722;2022-12-18T16:57:32;19.02;;;12.00;;
15331;SDS011;7766;51.534;6.722;2022-12-18T16:58:33;26.57;;;13.23;;
15331;SDS011;7766;51.534;6.722;2022-12-18T16:59:34;23.92;;;13.68;;
15331;SDS011;7766;51.534;6.722;2022-12-18T17:00:37;25.25;;;13.88;;
15331;SDS011;7766;51.534;6.722;2022-12-18T17:01:40;22.88;;;12.95;;
15331;SDS011;7766;51.534;6.722;2022-12-18T17:02:41;24.85;;;13.23;;
15331;SDS011;7766;51.534;6.722;2022-12-18T17:03:42;21.73;;;13.20;;
15331;SDS011;7766;51.534;6.722;2022-12-18T17:04:44;24.67;;;13.07;;
15331;SDS011;7766;51.534;6.722;2022-12-18T17:05:45;21.90;;;13.88;;
15331;SDS011;7766;51.534;6.722;2022-12-18T17:06:46;22.23;;;10.00;;
15331;SDS011;7766;51.534;6.722;2022-12-18T17:07:51;29.15;;;14.77;;
15331;SDS011;7766;51.534;6.722;2022-12-18T17:08:55;37.67;;;12.73;;
15331;SDS011;7766;51.534;6.722;2022-12-18T17:09:57;25.38;;;13.80;;
15331;SDS011;7766;51.534;6.722;2022-12-18T17:11:07;45.95;;;20.65;;
15331;SDS011;7766;51.534;6.722;2022-12-18T17:12:08;27.60;;;14.05;;
15331;SDS011;7766;51.534;6.722;2022-12-18T17:13:09;24.85;;;13.32;;
15331;SDS011;7766;51.534;6.722;2022-12-18T17:14:13;23.02;;;13.18;;
15331;SDS011;7766;51.534;6.722;2022-12-18T17:15:16;25.67;;;15.35;;
15331;SDS011;7766;51.534;6.722;2022-12-18T17:16:17;26.92;;;13.75;;
15331;SDS011;7766;51.534;6.722;2022-12-18T17:17:18;26.25;;;14.80;;
15331;SDS011;7766;51.534;6.722;2022-12-18T17:18:20;27.80;;;14.60;;
15331;SDS011;7766;51.534;6.722;2022-12-18T17:19:22;24.38;;;13.63;;
15331;SDS011;7766;51.534;6.722;2022-12-18T17:20:24;22.35;;;12.55;;
15331;SDS011;7766;51.534;6.722;2022-12-18T17:21:24;24.52;;;13.88;;
15331;SDS011;7766;51.534;6.722;2022-12-18T17:22:26;27.67;;;13.40;;
15331;SDS011;7766;51.534;6.722;2022-12-18T17:23:27;26.15;;;13.75;;
15331;SDS011;7766;51.534;6.722;2022-12-18T17:24:29;24.50;;;13.55;;
15331;SDS011;7766;51.534;6.722;2022-12-18T17:25:30;22.92;;;13.68;;
15331;SDS011;7766;51.534;6.722;2022-12-18T17:26:31;21.02;;;13.18;;
15331;SDS011;7766;51.534;6.722;2022-12-18T17:27:32;27.10;;;13.68;;
15331;SDS011;7766;51.534;6.722;2022-12-18T17:28:33;26.33;;;14.32;;
15331;SDS011;7766;51.534;6.722;2022-12-18T17:29:35;23.75;;;13.65;;
15331;SDS011;7766;51.534;6.722;2022-12-18T17:30:35;20.80;;;11.83;;
15331;SDS011;7766;51.534;6.722;2022-12-18T17:31:36;26.87;;;15.80;;
15331;SDS011;7766;51.534;6.722;2022-12-18T17:32:37;33.67;;;14.98;;
15331;SDS011;7766;51.534;6.722;2022-12-18T17:33:38;25.38;;;13.73;;
15331;SDS011;7766;51.534;6.722;2022-12-18T17:34:39;25.95;;;14.18;;
15331;SDS011;7766;51.534;6.722;2022-12-18T17:35:40;32.10;;;15.43;;
15331;SDS011;7766;51.534;6.722;2022-12-18T17:36:41;26.45;;;16.13;;
15331;SDS011;7766;51.534;6.722;2022-12-18T17:37:42;26.50;;;15.73;;
15331;SDS011;7766;51.534;6.722;2022-12-18T17:38:49;31.33;;;16.30;;
15331;SDS011;7766;51.534;6.722;2022-12-18T17:39:51;30.02;;;14.85;;
15331;SDS011;7766;51.534;6.722;2022-12-18T17:40:53;30.08;;;15.80;;
15331;SDS011;7766;51.534;6.722;2022-12-18T17:41:54;24.20;;;12.35;;
15331;SDS011;7766;51.534;6.722;2022-12-18T17:42:55;33.15;;;15.50;;
15331;SDS011;7766;51.534;6.722;2022-12-18T17:43:57;28.93;;;15.43;;
15331;SDS011;7766;51.534;6.722;2022-12-18T17:45:03;31.38;;;15.50;;
15331;SDS011;7766;51.534;6.722;2022-12-18T17:46:06;29.17;;;12.90;;
15331;SDS011;7766;51.534;6.722;2022-12-18T17:47:07;28.80;;;15.55;;
15331;SDS011;7766;51.534;6.722;2022-12-18T17:48:10;27.42;;;14.63;;
15331;SDS011;7766;51.534;6.722;2022-12-18T17:49:12;28.33;;;15.35;;
15331;SDS011;7766;51.534;6.722;2022-12-18T17:50:13;29.63;;;15.68;;
15331;SDS011;7766;51.534;6.722;2022-12-18T17:51:15;27.73;;;15.80;;
15331;SDS011;7766;51.534;6.722;2022-12-18T17:52:16;29.95;;;14.73;;
15331;SDS011;7766;51.534;6.722;2022-12-18T17:53:17;32.50;;;16.80;;
15331;SDS011;7766;51.534;6.722;2022-12-18T17:54:18;27.40;;;14.80;;
15331;SDS011;7766;51.534;6.722;2022-12-18T17:55:19;28.25;;;15.68;;
15331;SDS011;7766;51.534;6.722;2022-12-18T17:56:21;26.08;;;15.68;;
15331;SDS011;7766;51.534;6.722;2022-12-18T17:57:23;25.77;;;15.70;;
15331;SDS011;7766;51.534;6.722;2022-12-18T17:58:25;26.98;;;14.63;;
15331;SDS011;7766;51.534;6.722;2022-12-18T17:59:28;25.73;;;13.15;;
15331;SDS011;7766;51.534;6.722;2022-12-18T18:00:30;26.02;;;14.02;;
15331;SDS011;7766;51.534;6.722;2022-12-18T18:01:31;26.92;;;14.98;;
15331;SDS011;7766;51.534;6.722;2022-12-18T18:02:32;25.50;;;13.90;;
15331;SDS011;7766;51.534;6.722;2022-12-18T18:03:33;25.40;;;15.15;;
15331;SDS011;7766;51.534;6.722;2022-12-18T18:04:36;24.42;;;15.35;;
15331;SDS011;7766;51.534;6.722;2022-12-18T18:05:37;30.45;;;15.57;;
15331;SDS011;7766;51.534;6.722;2022-12-18T18:06:38;22.65;;;13.82;;
15331;SDS011;7766;51.534;6.722;2022-12-18T18:07:39;35.13;;;15.93;;
15331;SDS011;7766;51.534;6.722;2022-12-18T18:08:40;26.38;;;14.88;;
15331;SDS011;7766;51.534;6.722;2022-12-18T18:09:41;24.67;;;14.77;;
15331;SDS011;7766;51.534;6.722;2022-12-18T18:10:42;28.92;;;16.50;;
15331;SDS011;7766;51.534;6.722;2022-12-18T18:11:44;35.17;;;16.85;;
15331;SDS011;7766;51.534;6.722;2022-12-18T18:13:04;27.90;;;15.27;;
15331;SDS011;7766;51.534;6.722;2022-12-18T18:14:36;27.48;;;14.95;;
15331;SDS011;7766;51.534;6.722;2022-12-18T18:15:37;30.02;;;15.32;;
15331;SDS011;7766;51.534;6.722;2022-12-18T18:16:39;26.92;;;16.73;;
15331;SDS011;7766;51.534;6.722;2022-12-18T18:17:41;33.63;;;16.60;;
15331;SDS011;7766;51.534;6.722;2022-12-18T18:18:43;29.38;;;16.73;;
15331;SDS011;7766;51.534;6.722;2022-12-18T18:19:44;26.30;;;14.82;;
15331;SDS011;7766;51.534;6.722;2022-12-18T18:20:45;28.55;;;16.75;;
15331;SDS011;7766;51.534;6.722;2022-12-18T18:21:46;33.35;;;15.85;;
15331;SDS011;7766;51.534;6.722;2022-12-18T18:22:49;28.92;;;16.27;;
15331;SDS011;7766;51.534;6.722;2022-12-18T18:23:50;22.70;;;13.13;;
15331;SDS011;7766;51.534;6.722;2022-12-18T18:24:51;31.38;;;16.63;;
15331;SDS011;7766;51.534;6.722;2022-12-18T18:25:51;29.30;;;16.13;;
15331;SDS011;7766;51.534;6.722;2022-12-18T18:26:53;28.98;;;16.63;;
15331;SDS011;7766;51.534;6.722;2022-12-18T18:27:53;29.33;;;16.57;;
15331;SDS011;7766;51.534;6.722;2022-12-18T18:28:55;29.52;;;16.30;;
15331;SDS011;7766;51.534;6.722;2022-12-18T18:29:56;29.02;;;16.25;;
15331;SDS011;7766;51.534;6.722;2022-12-18T18:30:57;28.33;;;16.35;;
15331;SDS011;7766;51.534;6.722;2022-12-18T18:32:03;32.22;;;16.73;;
15331;SDS011;7766;51.534;6.722;2022-12-18T18:33:04;32.53;;;15.63;;
15331;SDS011;7766;51.534;6.722;2022-12-18T18:34:05;28.35;;;16.65;;
15331;SDS011;7766;51.534;6.722;2022-12-18T18:35:07;27.17;;;15.93;;
15331;SDS011;7766;51.534;6.722;2022-12-18T18:36:08;28.90;;;15.75;;
15331;SDS011;7766;51.534;6.722;2022-12-18T18:37:10;31.55;;;18.15;;
15331;SDS011;7766;51.534;6.722;2022-12-18T18:38:11;29.52;;;16.35;;
15331;SDS011;7766;51.534;6.722;2022-12-18T18:39:12;31.02;;;16.77;;
15331;SDS011;7766;51.534;6.722;2022-12-18T18:40:14;25.15;;;14.38;;
15331;SDS011;7766;51.534;6.722;2022-12-18T18:41:15;31.73;;;16.13;;
15331;SDS011;7766;51.534;6.722;2022-12-18T18:42:17;34.28;;;15.43;;
15331;SDS011;7766;51.534;6.722;2022-12-18T18:43:18;29.33;;;15.75;;
15331;SDS011;7766;51.534;6.722;2022-12-18T18:44:19;33.55;;;17.75;;
15331;SDS011;7766;51.534;6.722;2022-12-18T18:45:20;34.60;;;17.85;;
15331;SDS011;7766;51.534;6.722;2022-12-18T18:46:22;38.20;;;18.23;;
15331;SDS011;7766;51.534;6.722;2022-12-18T18:47:23;37.92;;;17.70;;
15331;SDS011;7766;51.534;6.722;2022-12-18T18:48:25;37.88;;;18.27;;
15331;SDS011;7766;51.534;6.722;2022-12-18T18:49:27;42.13;;;18.88;;
15331;SDS011;7766;51.534;6.722;2022-12-18T18:50:28;38.03;;;17.40;;
15331;SDS011;7766;51.534;6.722;2022-12-18T18:51:30;37.40;;;18.08;;
15331;SDS011;7766;51.534;6.722;2022-12-18T18:52:31;33.00;;;17.42;;
15331;SDS011;7766;51.534;6.722;2022-12-18T18:53:34;28.92;;;16.77;;
15331;SDS011;7766;51.534;6.722;2022-12-18T18:54:36;32.53;;;17.30;;
15331;SDS011;7766;51.534;6.722;2022-12-18T18:55:38;30.30;;;16.58;;
15331;SDS011;7766;51.534;6.722;2022-12-18T18:56:38;30.10;;;16.50;;
15331;SDS011;7766;51.534;6.722;2022-12-18T18:57:39;29.45;;;15.60;;
15331;SDS011;7766;51.534;6.722;2022-12-18T18:58:41;28.92;;;16.90;;
15331;SDS011;7766;51.534;6.722;2022-12-18T18:59:42;24.58;;;10.65;;
15331;SDS011;7766;51.534;6.722;2022-12-18T19:00:52;27.73;;;16.55;;
15331;SDS011;7766;51.534;6.722;2022-12-18T19:01:58;29.05;;;16.52;;
15331;SDS011;7766;51.534;6.722;2022-12-18T19:02:59;33.15;;;17.27;;
15331;SDS011;7766;51.534;6.722;2022-12-18T19:04:00;26.33;;;15.13;;
15331;SDS011;7766;51.534;6.722;2022-12-18T19:05:01;32.53;;;16.42;;
15331;SDS011;7766;51.534;6.722;2022-12-18T19:06:03;33.28;;;17.00;;
15331;SDS011;7766;51.534;6.722;2022-12-18T19:07:05;31.38;;;17.50;;
15331;SDS011;7766;51.534;6.722;2022-12-18T19:08:06;29.70;;;15.80;;
15331;SDS011;7766;51.534;6.722;2022-12-18T19:09:07;31.02;;;14.63;;
15331;SDS011;7766;51.534;6.722;2022-12-18T19:10:08;27.92;;;15.38;;
15331;SDS011;7766;51.534;6.722;2022-12-18T19:11:10;35.63;;;17.17;;
15331;SDS011;7766;51.534;6.722;2022-12-18T19:12:31;35.72;;;16.70;;
15331;SDS011;7766;51.534;6.722;2022-12-18T19:13:51;30.27;;;15.68;;
15331;SDS011;7766;51.534;6.722;2022-12-18T19:14:54;28.85;;;17.65;;
15331;SDS011;7766;51.534;6.722;2022-12-18T19:16:01;31.27;;;16.40;;
15331;SDS011;7766;51.534;6.722;2022-12-18T19:17:04;32.97;;;17.50;;
15331;SDS011;7766;51.534;6.722;2022-12-18T19:18:05;31.08;;;15.18;;
15331;SDS011;7766;51.534;6.722;2022-12-18T19:19:06;37.83;;;17.50;;
15331;SDS011;7766;51.534;6.722;2022-12-18T19:20:07;35.83;;;17.20;;
15331;SDS011;7766;51.534;6.722;2022-12-18T19:21:09;29.45;;;16.98;;
15331;SDS011;7766;51.534;6.722;2022-12-18T19:22:10;33.05;;;17.60;;
15331;SDS011;7766;51.534;6.722;2022-12-18T19:23:11;28.83;;;14.77;;
15331;SDS011;7766;51.534;6.722;2022-12-18T19:24:12;34.60;;;16.15;;
15331;SDS011;7766;51.534;6.722;2022-12-18T19:25:13;32.72;;;18.15;;
15331;SDS011;7766;51.534;6.722;2022-12-18T19:26:15;37.53;;;17.10;;
15331;SDS011;7766;51.534;6.722;2022-12-18T19:27:16;35.75;;;18.23;;
15331;SDS011;7766;51.534;6.722;2022-12-18T19:28:17;35.00;;;17.95;;
15331;SDS011;7766;51.534;6.722;2022-12-18T19:29:20;37.50;;;18.58;;
15331;SDS011;7766;51.534;6.722;2022-12-18T19:30:24;36.50;;;19.10;;
15331;SDS011;7766;51.534;6.722;2022-12-18T19:31:25;33.10;;;16.77;;
15331;SDS011;7766;51.534;6.722;2022-12-18T19:32:26;28.48;;;16.80;;
15331;SDS011;7766;51.534;6.722;2022-12-18T19:33:28;34.13;;;17.33;;
